createdAt,value
2019-03-09T00:02:08.930Z,100368.78
2019-03-09T00:04:36.475Z,100370.45
2019-03-09T00:07:04.047Z,100368.86
2019-03-09T00:09:31.485Z,100366.51
2019-03-09T00:11:59.410Z,100360.52
2019-03-09T00:14:26.822Z,100359.63
2019-03-09T00:16:54.589Z,100364.66
2019-03-09T00:19:21.975Z,100367.45
2019-03-09T00:21:50.341Z,100350.28
2019-03-09T00:24:49.264Z,100357.86
2019-03-09T00:27:35.176Z,100358.09
2019-03-09T00:30:31.828Z,100353.36
2019-03-09T00:32:59.905Z,100350.01
2019-03-09T00:35:27.686Z,100348.11
2019-03-09T00:37:55.344Z,100344.36
2019-03-09T00:40:23.153Z,100343.00
2019-03-09T00:42:51.552Z,100338.59
2019-03-09T00:45:18.837Z,100338.52
2019-03-09T00:47:46.424Z,100335.13
2019-03-09T00:50:14.203Z,100326.97
2019-03-09T00:52:41.915Z,100327.33
2019-03-09T00:55:10.513Z,100318.20
2019-03-09T00:57:38.634Z,100317.91
2019-03-09T01:00:12.184Z,100307.77
2019-03-09T01:02:40.234Z,100293.48
2019-03-09T01:05:08.885Z,100286.73
2019-03-09T01:07:37.115Z,100278.66
2019-03-09T01:10:07.509Z,100268.36
2019-03-09T01:12:35.754Z,100262.89
2019-03-09T01:15:04.635Z,100248.50
2019-03-09T01:17:32.162Z,100247.37
2019-03-09T01:20:00.393Z,100236.53
2019-03-09T01:22:27.935Z,100228.06
2019-03-09T01:24:56.176Z,100217.98
2019-03-09T01:27:23.792Z,100202.81
2019-03-09T01:29:51.207Z,100209.13
2019-03-09T01:32:19.084Z,100207.48
2019-03-09T01:34:46.607Z,100192.38
2019-03-09T01:37:14.523Z,100193.10
2019-03-09T01:39:42.337Z,100161.20
2019-03-09T01:42:09.741Z,100181.95
2019-03-09T01:44:37.390Z,100159.02
2019-03-09T01:47:05.165Z,100160.03
2019-03-09T01:49:32.730Z,100136.59
2019-03-09T01:52:00.563Z,100148.76
2019-03-09T01:54:28.072Z,100138.63
2019-03-09T01:56:55.671Z,100130.49
2019-03-09T01:59:23.626Z,100127.60
2019-03-09T02:01:52.211Z,100127.55
2019-03-09T02:04:20.229Z,100106.89
2019-03-09T02:06:47.605Z,100113.67
2019-03-09T02:09:14.908Z,100123.75
2019-03-09T02:11:42.685Z,100114.13
2019-03-09T02:14:10.504Z,100106.73
2019-03-09T02:16:37.901Z,100099.95
2019-03-09T02:19:05.432Z,100095.41
2019-03-09T02:21:32.805Z,100098.47
2019-03-09T02:24:00.416Z,100086.44
2019-03-09T02:26:28.290Z,100074.45
2019-03-09T02:28:56.161Z,100078.74
2019-03-09T02:31:24.270Z,100065.94
2019-03-09T02:33:52.241Z,100056.30
2019-03-09T02:36:20.473Z,100054.06
2019-03-09T02:38:58.494Z,100061.72
2019-03-09T02:41:26.437Z,100056.26
2019-03-09T02:43:53.829Z,100060.27
2019-03-09T02:46:21.604Z,100057.73
2019-03-09T02:48:48.936Z,100061.83
2019-03-09T02:51:16.789Z,100044.09
2019-03-09T02:53:44.285Z,100046.04
2019-03-09T02:56:11.865Z,100043.56
2019-03-09T02:58:39.739Z,100030.33
2019-03-09T03:01:39.219Z,100043.23
2019-03-09T03:04:07.139Z,100051.39
2019-03-09T03:06:35.112Z,100038.00
2019-03-09T03:09:04.014Z,100028.78
2019-03-09T03:11:31.970Z,100034.59
2019-03-09T03:14:00.121Z,100036.19
2019-03-09T03:16:27.818Z,100039.25
2019-03-09T03:18:55.167Z,100033.38
2019-03-09T03:21:22.660Z,100029.30
2019-03-09T03:23:50.996Z,100033.67
2019-03-09T03:26:19.344Z,100033.67
2019-03-09T03:28:46.777Z,100023.26
2019-03-09T03:31:14.312Z,100030.31
2019-03-09T03:33:41.872Z,100028.13
2019-03-09T03:36:09.916Z,100024.69
2019-03-09T03:38:38.003Z,100032.73
2019-03-09T03:41:05.441Z,100014.30
2019-03-09T03:43:32.861Z,100018.83
2019-03-09T03:46:00.127Z,100016.73
2019-03-09T03:48:28.189Z,100012.77
2019-03-09T03:50:55.699Z,100010.31
2019-03-09T03:53:24.138Z,100002.59
2019-03-09T03:55:51.397Z,100021.86
2019-03-09T03:58:19.396Z,100020.38
2019-03-09T04:00:47.437Z,100016.84
2019-03-09T04:03:15.409Z,100019.66
2019-03-09T04:05:45.108Z,100017.38
2019-03-09T04:08:13.389Z,100022.38
2019-03-09T04:10:41.161Z,100032.82
2019-03-09T04:13:09.163Z,100034.33
2019-03-09T04:15:37.148Z,100037.64
2019-03-09T04:18:04.962Z,100045.08
2019-03-09T04:20:32.625Z,100037.61
2019-03-09T04:23:00.290Z,100034.66
2019-03-09T04:25:27.881Z,100032.14
2019-03-09T04:27:55.275Z,100039.09
2019-03-09T04:30:23.176Z,100040.72
2019-03-09T04:32:51.641Z,100048.03
2019-03-09T04:35:19.316Z,100041.76
2019-03-09T04:37:47.636Z,100036.28
2019-03-09T04:40:15.225Z,100044.33
2019-03-09T04:42:42.957Z,100064.83
2019-03-09T04:45:10.719Z,100062.31
2019-03-09T04:47:38.251Z,100071.63
2019-03-09T04:50:06.146Z,100074.70
2019-03-09T04:52:34.039Z,100071.55
2019-03-09T04:55:01.542Z,100083.71
2019-03-09T04:57:29.222Z,100083.62
2019-03-09T04:59:56.633Z,100075.07
2019-03-09T05:02:24.768Z,100091.61
2019-03-09T05:04:53.138Z,100075.77
2019-03-09T05:07:46.845Z,100089.27
2019-03-09T05:10:47.030Z,100077.28
2019-03-09T05:13:40.502Z,100078.70
2019-03-09T05:16:08.661Z,100080.45
2019-03-09T05:18:36.154Z,100086.05
2019-03-09T05:21:04.402Z,100087.87
2019-03-09T05:23:32.375Z,100083.62
2019-03-09T05:26:00.866Z,100099.71
2019-03-09T05:28:28.264Z,100098.15
2019-03-09T05:30:55.690Z,100089.44
2019-03-09T05:33:23.580Z,100100.04
2019-03-09T05:35:50.838Z,100103.81
2019-03-09T05:38:18.155Z,100106.91
2019-03-09T05:40:47.084Z,100105.78
2019-03-09T05:43:14.895Z,100109.48
2019-03-09T05:45:43.047Z,100109.77
2019-03-09T05:48:10.547Z,100113.62
2019-03-09T05:50:38.080Z,100111.05
2019-03-09T05:53:11.977Z,100120.58
2019-03-09T05:55:39.482Z,100123.58
2019-03-09T05:58:07.668Z,100149.82
2019-03-09T06:00:36.801Z,100120.94
2019-03-09T06:03:04.468Z,100146.80
2019-03-09T06:06:05.619Z,100150.42
2019-03-09T06:08:33.022Z,100145.66
2019-03-09T06:11:00.331Z,100135.39
2019-03-09T06:13:28.144Z,100130.62
2019-03-09T06:15:55.716Z,100121.77
2019-03-09T06:18:23.802Z,100124.52
2019-03-09T06:20:51.437Z,100141.57
2019-03-09T06:23:19.532Z,100140.50
2019-03-09T06:25:47.066Z,100158.56
2019-03-09T06:28:14.593Z,100155.75
2019-03-09T06:30:41.885Z,100160.75
2019-03-09T06:33:24.010Z,100148.20
2019-03-09T06:36:03.002Z,100150.01
2019-03-09T06:38:58.988Z,100155.13
2019-03-09T06:42:00.052Z,100161.06
2019-03-09T06:44:27.636Z,100168.03
2019-03-09T06:46:55.028Z,100187.20
2019-03-09T06:49:22.891Z,100180.52
2019-03-09T06:51:50.614Z,100196.25
2019-03-09T06:54:17.755Z,100208.69
2019-03-09T06:56:45.906Z,100206.64
2019-03-09T06:59:14.333Z,100221.55
2019-03-09T07:01:42.175Z,100214.64
2019-03-09T07:04:09.811Z,100200.91
2019-03-09T07:06:37.156Z,100204.46
2019-03-09T07:09:06.024Z,100197.34
2019-03-09T07:11:33.634Z,100206.15
2019-03-09T07:15:17.293Z,100198.41
2019-03-09T07:17:44.831Z,100190.77
2019-03-09T07:20:13.199Z,100196.76
2019-03-09T07:22:41.192Z,100190.17
2019-03-09T07:25:08.879Z,100190.91
2019-03-09T07:27:36.458Z,100194.30
2019-03-09T07:30:10.026Z,100191.42
2019-03-09T07:32:37.637Z,100190.52
2019-03-09T07:35:06.473Z,100179.22
2019-03-09T07:37:34.079Z,100188.80
2019-03-09T07:40:01.621Z,100197.69
2019-03-09T07:42:29.039Z,100184.27
2019-03-09T07:44:56.585Z,100182.98
2019-03-09T07:47:24.565Z,100206.17
2019-03-09T07:49:52.040Z,100202.86
2019-03-09T07:52:30.442Z,100212.08
2019-03-09T07:54:57.702Z,100213.44
2019-03-09T07:57:25.002Z,100212.32
2019-03-09T07:59:53.017Z,100216.88
2019-03-09T08:02:25.454Z,100226.13
2019-03-09T08:04:53.167Z,100239.05
2019-03-09T08:07:26.985Z,100239.34
2019-03-09T08:09:54.799Z,100241.86
2019-03-09T08:12:24.179Z,100245.86
2019-03-09T08:14:59.040Z,100244.07
2019-03-09T08:17:27.070Z,100250.30
2019-03-09T08:19:55.047Z,100255.30
2019-03-09T08:22:22.678Z,100252.32
2019-03-09T08:24:50.341Z,100260.88
2019-03-09T08:27:18.070Z,100251.53
2019-03-09T08:29:46.239Z,100256.70
2019-03-09T08:32:14.444Z,100254.81
2019-03-09T08:34:41.779Z,100247.55
2019-03-09T08:37:09.577Z,100261.31
2019-03-09T08:39:36.874Z,100274.66
2019-03-09T08:42:04.758Z,100285.25
2019-03-09T08:44:32.290Z,100286.42
2019-03-09T08:47:00.279Z,100293.19
2019-03-09T08:49:27.993Z,100300.09
2019-03-09T08:51:55.491Z,100318.41
2019-03-09T08:54:23.174Z,100319.23
2019-03-09T08:56:50.967Z,100324.30
2019-03-09T08:59:18.909Z,100331.84
2019-03-09T09:01:46.582Z,100335.09
2019-03-09T09:04:14.420Z,100329.64
2019-03-09T09:06:41.891Z,100333.01
2019-03-09T09:09:09.581Z,100347.63
2019-03-09T09:11:37.941Z,100344.07
2019-03-09T09:14:06.021Z,100349.80
2019-03-09T09:16:34.231Z,100343.20
2019-03-09T09:19:02.168Z,100344.36
2019-03-09T09:21:30.144Z,100337.77
2019-03-09T09:23:57.729Z,100348.02
2019-03-09T09:26:25.521Z,100343.78
2019-03-09T09:28:53.370Z,100347.63
2019-03-09T09:31:22.001Z,100347.59
2019-03-09T09:33:49.803Z,100339.97
2019-03-09T09:36:17.629Z,100347.63
2019-03-09T09:38:45.267Z,100350.95
2019-03-09T09:41:12.763Z,100354.72
2019-03-09T09:43:40.495Z,100351.03
2019-03-09T09:46:08.312Z,100345.91
2019-03-09T09:48:35.918Z,100334.87
2019-03-09T09:51:03.759Z,100331.97
2019-03-09T09:53:31.380Z,100336.08
2019-03-09T09:55:59.091Z,100332.64
2019-03-09T09:58:26.534Z,100325.23
2019-03-09T10:00:54.752Z,100330.23
2019-03-09T10:03:22.503Z,100315.63
2019-03-09T10:05:50.579Z,100318.54
2019-03-09T10:08:18.177Z,100310.44
2019-03-09T10:10:45.667Z,100309.81
2019-03-09T10:13:12.821Z,100308.53
2019-03-09T10:15:40.641Z,100303.75
2019-03-09T10:18:08.459Z,100310.78
2019-03-09T10:20:36.049Z,100314.77
2019-03-09T10:23:04.996Z,100294.68
2019-03-09T10:25:33.879Z,100303.94
2019-03-09T10:28:01.806Z,100322.09
2019-03-09T10:30:29.873Z,100320.17
2019-03-09T10:32:57.367Z,100330.95
2019-03-09T10:35:25.519Z,100323.10
2019-03-09T10:37:53.211Z,100306.88
2019-03-09T10:40:21.202Z,100312.93
2019-03-09T10:42:48.723Z,100308.25
2019-03-09T10:45:16.364Z,100317.14
2019-03-09T10:47:44.135Z,100311.84
2019-03-09T10:50:12.895Z,100314.59
2019-03-09T10:52:40.303Z,100320.51
2019-03-09T10:55:11.204Z,100319.05
2019-03-09T10:57:39.787Z,100315.34
2019-03-09T11:00:15.983Z,100312.53
2019-03-09T11:02:47.456Z,100305.86
2019-03-09T11:05:19.535Z,100312.01
2019-03-09T11:07:52.477Z,100301.13
2019-03-09T11:10:20.744Z,100290.90
2019-03-09T11:12:48.760Z,100292.84
2019-03-09T11:15:16.960Z,100298.48
2019-03-09T11:17:45.484Z,100292.49
2019-03-09T11:20:14.277Z,100290.56
2019-03-09T11:22:41.763Z,100282.55
2019-03-09T11:25:09.613Z,100271.56
2019-03-09T11:27:37.033Z,100266.20
2019-03-09T11:30:09.619Z,100253.23
2019-03-09T11:32:37.008Z,100241.19
2019-03-09T11:35:04.992Z,100237.45
2019-03-09T11:37:33.331Z,100212.08
2019-03-09T11:40:00.923Z,100215.97
2019-03-09T11:42:28.778Z,100216.27
2019-03-09T11:44:56.891Z,100202.00
2019-03-09T11:47:25.478Z,100210.50
2019-03-09T11:49:53.607Z,100227.48
2019-03-09T11:52:21.632Z,100258.55
2019-03-09T11:54:49.427Z,100285.21
2019-03-09T11:57:16.952Z,100291.45
2019-03-09T11:59:44.537Z,100295.06
2019-03-09T12:02:12.091Z,100282.45
2019-03-09T12:04:46.814Z,100282.10
2019-03-09T12:07:09.115Z,100271.28
2019-03-09T12:09:37.302Z,100254.06
2019-03-09T12:12:05.026Z,100247.59
2019-03-09T12:14:32.774Z,100242.16
2019-03-09T12:17:00.931Z,100220.40
2019-03-09T12:19:29.379Z,100203.08
2019-03-09T12:21:56.747Z,100207.84
2019-03-09T12:24:24.647Z,100193.28
2019-03-09T12:26:52.407Z,100192.96
2019-03-09T12:29:20.128Z,100174.82
2019-03-09T12:31:47.505Z,100166.46
2019-03-09T12:34:15.360Z,100172.08
2019-03-09T12:36:43.451Z,100183.85
2019-03-09T12:39:11.622Z,100179.73
2019-03-09T12:41:40.119Z,100166.77
2019-03-09T12:44:08.802Z,100151.19
2019-03-09T12:46:37.497Z,100137.02
2019-03-09T12:49:06.024Z,100144.20
2019-03-09T12:51:33.289Z,100135.95
2019-03-09T12:54:00.806Z,100120.19
2019-03-09T12:56:28.840Z,100095.03
2019-03-09T12:58:56.708Z,100092.28
2019-03-09T13:01:24.315Z,100102.48
2019-03-09T13:03:51.704Z,100092.63
2019-03-09T13:06:20.046Z,100113.47
2019-03-09T13:08:47.587Z,100112.65
2019-03-09T13:11:15.597Z,100119.48
2019-03-09T13:13:43.530Z,100110.17
2019-03-09T13:16:12.042Z,100100.31
2019-03-09T13:18:39.731Z,100062.64
2019-03-09T13:21:07.201Z,100038.22
2019-03-09T13:23:34.751Z,100023.60
2019-03-09T13:26:02.832Z,100041.22
2019-03-09T13:28:30.561Z,100056.93
2019-03-09T13:30:58.269Z,100057.45
2019-03-09T13:33:25.766Z,100062.42
2019-03-09T13:35:53.951Z,100062.95
2019-03-09T13:38:21.445Z,100055.58
2019-03-09T13:40:49.025Z,100029.19
2019-03-09T13:43:16.963Z,100017.94
2019-03-09T13:45:45.805Z,100012.69
2019-03-09T13:48:13.297Z,100009.69
2019-03-09T13:50:40.820Z,99991.56
2019-03-09T13:53:08.715Z,99980.00
2019-03-09T13:55:36.796Z,99977.55
2019-03-09T13:58:04.295Z,99974.77
2019-03-09T14:00:40.112Z,99967.61
2019-03-09T14:03:03.114Z,99959.09
2019-03-09T14:05:34.043Z,99950.29
2019-03-09T14:08:01.706Z,99945.39
2019-03-09T14:10:29.692Z,99959.94
2019-03-09T14:12:59.973Z,99945.13
2019-03-09T14:15:27.413Z,99941.02
2019-03-09T14:17:55.009Z,99927.80
2019-03-09T14:20:22.469Z,99934.95
2019-03-09T14:22:50.799Z,99929.73
2019-03-09T14:25:18.787Z,99920.67
2019-03-09T14:27:46.395Z,99921.48
2019-03-09T14:30:14.922Z,99890.70
2019-03-09T14:32:42.931Z,99879.42
2019-03-09T14:35:10.868Z,99884.66
2019-03-09T14:37:38.651Z,99887.13
2019-03-09T14:40:07.934Z,99895.37
2019-03-09T14:42:38.915Z,99881.88
2019-03-09T14:45:11.535Z,99882.16
2019-03-09T14:47:39.629Z,99891.52
2019-03-09T14:50:07.214Z,99898.94
2019-03-09T14:52:35.150Z,99918.73
2019-03-09T14:55:02.724Z,99899.76
2019-03-09T14:57:30.485Z,99893.14
2019-03-09T14:59:57.916Z,99884.64
2019-03-09T15:02:25.180Z,99860.98
2019-03-09T15:04:52.949Z,99848.86
2019-03-09T15:07:20.465Z,99863.45
2019-03-09T15:09:48.075Z,99847.80
2019-03-09T15:12:15.827Z,99843.67
2019-03-09T15:14:42.980Z,99844.77
2019-03-09T15:17:10.239Z,99841.48
2019-03-09T15:19:38.472Z,99835.72
2019-03-09T15:22:12.210Z,99837.36
2019-03-09T15:24:40.194Z,99844.78
2019-03-09T15:27:15.262Z,99826.66
2019-03-09T15:29:43.471Z,99801.38
2019-03-09T15:32:11.153Z,99828.56
2019-03-09T15:34:39.072Z,99838.72
2019-03-09T15:37:06.882Z,99814.27
2019-03-09T15:39:34.728Z,99835.15
2019-03-09T15:42:02.395Z,99812.35
2019-03-09T15:44:29.691Z,99833.23
2019-03-09T15:46:57.533Z,99824.17
2019-03-09T15:49:25.249Z,99837.38
2019-03-09T15:51:53.298Z,99821.14
2019-03-09T15:54:24.360Z,99823.91
2019-03-09T15:56:52.135Z,99810.44
2019-03-09T15:59:20.182Z,99789.03
2019-03-09T16:01:48.561Z,99808.53
2019-03-09T16:04:16.648Z,99806.88
2019-03-09T16:06:44.419Z,99825.01
2019-03-09T16:09:12.675Z,99819.50
2019-03-09T16:11:44.901Z,99820.55
2019-03-09T16:14:10.525Z,99822.25
2019-03-09T16:16:38.057Z,99840.09
2019-03-09T16:19:05.892Z,99854.10
2019-03-09T16:21:33.298Z,99852.48
2019-03-09T16:24:01.120Z,99853.83
2019-03-09T16:26:29.241Z,99850.55
2019-03-09T16:28:56.643Z,99853.02
2019-03-09T16:31:24.234Z,99861.80
2019-03-09T16:33:51.829Z,99849.44
2019-03-09T16:36:19.874Z,99832.43
2019-03-09T16:38:47.381Z,99831.88
2019-03-09T16:41:14.837Z,99844.50
2019-03-09T16:43:42.473Z,99837.36
2019-03-09T16:46:10.332Z,99842.58
2019-03-09T16:48:38.175Z,99849.63
2019-03-09T16:51:05.549Z,99866.38
2019-03-09T16:53:33.065Z,99874.60
2019-03-09T16:56:01.051Z,99874.32
2019-03-09T16:58:29.181Z,99887.25
2019-03-09T17:00:56.678Z,99863.05
2019-03-09T17:03:57.825Z,99880.30
2019-03-09T17:06:25.839Z,99860.30
2019-03-09T17:08:53.529Z,99885.03
2019-03-09T17:11:21.924Z,99890.25
2019-03-09T17:13:49.519Z,99900.94
2019-03-09T17:16:16.910Z,99899.59
2019-03-09T17:18:44.196Z,99882.23
2019-03-09T17:21:11.907Z,99893.22
2019-03-09T17:23:39.737Z,99901.36
2019-03-09T17:26:07.245Z,99933.27
2019-03-09T17:28:35.108Z,99948.02
2019-03-09T17:31:03.171Z,99954.55
2019-03-09T17:33:30.944Z,99971.02
2019-03-09T17:35:59.201Z,99992.92
2019-03-09T17:38:27.118Z,100000.56
2019-03-09T17:40:54.512Z,99997.27
2019-03-09T17:43:22.150Z,100021.96
2019-03-09T17:45:49.541Z,100024.74
2019-03-09T17:48:17.538Z,100028.31
2019-03-09T17:50:44.801Z,100022.61
2019-03-09T17:53:13.987Z,100031.22
2019-03-09T17:55:41.395Z,100040.77
2019-03-09T17:58:08.650Z,100040.23
2019-03-09T18:00:42.779Z,100065.84
2019-03-09T18:03:09.156Z,100064.73
2019-03-09T18:05:36.588Z,100069.55
2019-03-09T18:08:04.450Z,100075.34
2019-03-09T18:10:37.790Z,100085.39
2019-03-09T18:13:05.999Z,100078.63
2019-03-09T18:15:33.663Z,100080.31
2019-03-09T18:18:01.277Z,100105.51
2019-03-09T18:20:29.159Z,100106.31
2019-03-09T18:22:57.414Z,100116.80
2019-03-09T18:25:28.297Z,100128.05
2019-03-09T18:27:56.002Z,100150.73
2019-03-09T18:30:23.354Z,100173.03
2019-03-09T18:32:50.953Z,100198.48
2019-03-09T18:35:18.689Z,100216.03
2019-03-09T18:37:45.856Z,100243.46
2019-03-09T18:40:13.809Z,100258.30
2019-03-09T18:42:41.623Z,100287.14
2019-03-09T18:45:14.185Z,100294.61
2019-03-09T18:47:41.601Z,100310.77
2019-03-09T18:50:10.054Z,100331.84
2019-03-09T18:52:37.989Z,100341.80
2019-03-09T18:55:06.000Z,100355.63
2019-03-09T18:57:33.563Z,100355.30
2019-03-09T19:00:00.963Z,100357.74
2019-03-09T19:02:28.243Z,100344.34
2019-03-09T19:04:56.367Z,100337.28
2019-03-09T19:07:24.071Z,100337.01
2019-03-09T19:09:52.418Z,100365.32
2019-03-09T19:12:20.460Z,100384.06
2019-03-09T19:14:47.713Z,100391.14
2019-03-09T19:17:15.832Z,100381.62
2019-03-09T19:19:43.815Z,100382.70
2019-03-09T19:22:11.719Z,100395.19
2019-03-09T19:24:39.171Z,100405.75
2019-03-09T19:27:06.970Z,100411.38
2019-03-09T19:29:34.759Z,100394.17
2019-03-09T19:32:02.171Z,100403.66
2019-03-09T19:34:29.972Z,100409.36
2019-03-09T19:36:57.590Z,100400.93
2019-03-09T19:39:25.169Z,100382.91
2019-03-09T19:41:52.973Z,100381.44
2019-03-09T19:44:20.962Z,100388.42
2019-03-09T19:46:49.329Z,100393.36
2019-03-09T19:49:16.648Z,100408.77
2019-03-09T19:51:44.347Z,100423.82
2019-03-09T19:54:12.064Z,100430.80
2019-03-09T19:56:39.838Z,100434.66
2019-03-09T19:59:07.467Z,100440.83
2019-03-09T20:01:35.050Z,100433.12
2019-03-09T20:04:03.256Z,100423.03
2019-03-09T20:06:30.799Z,100420.45
2019-03-09T20:08:59.313Z,100429.02
2019-03-09T20:11:26.706Z,100435.99
2019-03-09T20:13:54.255Z,100435.81
2019-03-09T20:16:21.828Z,100439.64
2019-03-09T20:18:49.621Z,100441.80
2019-03-09T20:21:16.963Z,100445.92
2019-03-09T20:23:44.700Z,100438.58
2019-03-09T20:26:12.237Z,100430.30
2019-03-09T20:28:39.808Z,100433.44
2019-03-09T20:31:07.894Z,100433.74
2019-03-09T20:33:35.752Z,100427.45
2019-03-09T20:36:09.570Z,100427.60
2019-03-09T20:38:37.744Z,100427.36
2019-03-09T20:41:05.177Z,100432.73
2019-03-09T20:43:33.075Z,100421.02
2019-03-09T20:46:00.625Z,100431.10
2019-03-09T20:48:28.713Z,100428.13
2019-03-09T20:50:56.793Z,100421.27
2019-03-09T20:53:24.564Z,100410.63
2019-03-09T20:55:52.162Z,100412.68
2019-03-09T20:58:20.033Z,100421.64
2019-03-09T21:00:47.520Z,100420.36
2019-03-09T21:03:15.965Z,100419.97
2019-03-09T21:05:43.406Z,100428.54
2019-03-09T21:08:10.652Z,100440.87
2019-03-09T21:10:38.480Z,100448.39
2019-03-09T21:13:06.744Z,100444.28
2019-03-09T21:15:35.145Z,100452.55
2019-03-09T21:18:05.003Z,100450.27
2019-03-09T21:20:32.863Z,100459.69
2019-03-09T21:23:00.667Z,100459.83
2019-03-09T21:25:28.134Z,100463.41
2019-03-09T21:27:55.985Z,100470.28
2019-03-09T21:30:23.377Z,100462.70
2019-03-09T21:32:50.635Z,100462.72
2019-03-09T21:35:18.075Z,100462.17
2019-03-09T21:37:45.894Z,100467.92
2019-03-09T21:40:13.763Z,100470.52
2019-03-09T21:42:41.592Z,100470.66
2019-03-09T21:45:09.505Z,100465.68
2019-03-09T21:47:36.697Z,100455.44
2019-03-09T21:50:06.145Z,100453.16
2019-03-09T21:52:34.096Z,100455.90
2019-03-09T21:55:01.370Z,100461.97
2019-03-09T21:57:29.480Z,100455.73
2019-03-09T21:59:57.360Z,100464.59
2019-03-09T22:02:24.541Z,100471.41
2019-03-09T22:04:51.919Z,100463.47
2019-03-09T22:07:19.318Z,100468.98
2019-03-09T22:09:47.135Z,100473.61
2019-03-09T22:12:14.943Z,100475.88
2019-03-09T22:14:42.758Z,100475.28
2019-03-09T22:17:10.564Z,100470.52
2019-03-09T22:19:38.650Z,100462.48
2019-03-09T22:22:06.490Z,100460.44
2019-03-09T22:24:33.663Z,100456.05
2019-03-09T22:27:02.178Z,100468.63
2019-03-09T22:29:30.080Z,100457.66
2019-03-09T22:31:57.497Z,100468.02
2019-03-09T22:34:25.520Z,100475.05
2019-03-09T22:36:52.689Z,100475.81
2019-03-09T22:39:20.418Z,100468.78
2019-03-09T22:41:48.438Z,100471.05
2019-03-09T22:44:16.041Z,100466.66
2019-03-09T22:46:43.756Z,100462.77
2019-03-09T22:49:11.581Z,100462.34
2019-03-09T22:51:39.606Z,100463.31
2019-03-09T22:54:07.054Z,100473.02
2019-03-09T22:56:35.219Z,100473.31
2019-03-09T22:59:02.587Z,100481.44
2019-03-09T23:01:31.254Z,100477.18
2019-03-09T23:03:58.930Z,100468.07
2019-03-09T23:06:27.173Z,100475.72
2019-03-09T23:08:55.029Z,100470.50
2019-03-09T23:11:22.910Z,100475.19
2019-03-09T23:13:50.290Z,100476.65
2019-03-09T23:16:17.701Z,100478.07
2019-03-09T23:18:45.729Z,100457.63
2019-03-09T23:21:13.461Z,100462.65
2019-03-09T23:23:40.988Z,100458.30
2019-03-09T23:26:08.736Z,100467.00
2019-03-09T23:28:47.682Z,100451.77
2019-03-09T23:31:15.426Z,100450.28
2019-03-09T23:33:43.459Z,100448.52
2019-03-09T23:36:10.932Z,100450.94
2019-03-09T23:38:38.941Z,100447.48
2019-03-09T23:41:06.245Z,100450.58
2019-03-09T23:43:33.810Z,100440.68
2019-03-09T23:46:01.693Z,100443.07
2019-03-09T23:48:29.401Z,100439.15
2019-03-09T23:50:56.869Z,100433.06
2019-03-09T23:53:24.447Z,100435.59
2019-03-09T23:55:51.917Z,100424.83
2019-03-09T23:58:19.311Z,100426.05
